sensor_id;sensor_type;location;lat;lon;timestamp;pressure;altitude;pressure_sealevel;temperature;humidity
9905;BME280;4991;43.566;27.820;2023-07-09T00:00:44;98783.19;;;18.56;100.00
9905;BME280;4991;43.566;27.820;2023-07-09T00:03:11;98789.06;;;18.55;100.00
9905;BME280;4991;43.566;27.820;2023-07-09T00:05:36;98791.81;;;18.55;100.00
9905;BME280;4991;43.566;27.820;2023-07-09T00:08:02;98790.16;;;18.50;100.00
9905;BME280;4991;43.566;27.820;2023-07-09T00:10:28;98792.09;;;18.50;100.00
9905;BME280;4991;43.566;27.820;2023-07-09T00:12:53;98783.81;;;18.50;100.00
9905;BME280;4991;43.566;27.820;2023-07-09T00:15:19;98782.56;;;18.47;100.00
9905;BME280;4991;43.566;27.820;2023-07-09T00:17:45;98778.94;;;18.43;100.00
9905;BME280;4991;43.566;27.820;2023-07-09T00:20:17;98782.41;;;18.40;100.00
9905;BME280;4991;43.566;27.820;2023-07-09T00:22:43;98773.78;;;18.42;100.00
9905;BME280;4991;43.566;27.820;2023-07-09T00:25:18;98783.53;;;18.39;100.00
9905;BME280;4991;43.566;27.820;2023-07-09T00:27:45;98776.06;;;18.40;100.00
9905;BME280;4991;43.566;27.820;2023-07-09T00:30:21;98774.13;;;18.40;100.00
9905;BME280;4991;43.566;27.820;2023-07-09T00:32:48;98769.75;;;18.39;100.00
9905;BME280;4991;43.566;27.820;2023-07-09T00:35:14;98773.09;;;18.33;100.00
9905;BME280;4991;43.566;27.820;2023-07-09T00:37:42;98768.41;;;18.33;100.00
9905;BME280;4991;43.566;27.820;2023-07-09T00:40:14;98769.47;;;18.29;100.00
9905;BME280;4991;43.566;27.820;2023-07-09T00:42:44;98765.44;;;18.26;100.00
9905;BME280;4991;43.566;27.820;2023-07-09T00:45:18;98753.97;;;18.24;100.00
9905;BME280;4991;43.566;27.820;2023-07-09T00:47:50;98752.81;;;18.25;100.00
9905;BME280;4991;43.566;27.820;2023-07-09T00:50:29;98756.97;;;18.19;100.00
9905;BME280;4991;43.566;27.820;2023-07-09T00:53:00;98753.19;;;18.24;100.00
9905;BME280;4991;43.566;27.820;2023-07-09T00:55:32;98753.59;;;18.26;100.00
9905;BME280;4991;43.566;27.820;2023-07-09T00:58:02;98759.75;;;18.19;100.00
9905;BME280;4991;43.566;27.820;2023-07-09T01:00:36;98757.78;;;18.20;100.00
9905;BME280;4991;43.566;27.820;2023-07-09T01:03:25;98760.56;;;18.20;100.00
9905;BME280;4991;43.566;27.820;2023-07-09T01:05:56;98766.41;;;18.18;100.00
9905;BME280;4991;43.566;27.820;2023-07-09T01:08:23;98755.31;;;18.15;100.00
9905;BME280;4991;43.566;27.820;2023-07-09T01:10:49;98753.63;;;18.10;100.00
9905;BME280;4991;43.566;27.820;2023-07-09T01:13:16;98753.06;;;18.04;100.00
9905;BME280;4991;43.566;27.820;2023-07-09T01:15:45;98764.44;;;18.03;100.00
9905;BME280;4991;43.566;27.820;2023-07-09T01:18:12;98755.97;;;17.96;100.00
9905;BME280;4991;43.566;27.820;2023-07-09T01:20:40;98761.94;;;17.98;100.00
9905;BME280;4991;43.566;27.820;2023-07-09T01:23:06;98769.34;;;17.94;100.00
9905;BME280;4991;43.566;27.820;2023-07-09T01:25:33;98756.69;;;17.93;100.00
9905;BME280;4991;43.566;27.820;2023-07-09T01:27:59;98759.91;;;17.95;100.00
9905;BME280;4991;43.566;27.820;2023-07-09T01:30:32;98764.69;;;17.98;100.00
9905;BME280;4991;43.566;27.820;2023-07-09T01:33:00;98776.63;;;18.02;100.00
9905;BME280;4991;43.566;27.820;2023-07-09T01:35:27;98784.00;;;17.98;100.00
9905;BME280;4991;43.566;27.820;2023-07-09T01:37:54;98787.91;;;17.97;100.00
9905;BME280;4991;43.566;27.820;2023-07-09T01:40:22;98791.28;;;17.90;100.00
9905;BME280;4991;43.566;27.820;2023-07-09T01:42:50;98782.56;;;17.88;100.00
9905;BME280;4991;43.566;27.820;2023-07-09T01:45:17;98791.16;;;17.87;100.00
9905;BME280;4991;43.566;27.820;2023-07-09T01:47:43;98792.31;;;17.86;100.00
9905;BME280;4991;43.566;27.820;2023-07-09T01:50:10;98789.56;;;17.86;100.00
9905;BME280;4991;43.566;27.820;2023-07-09T01:52:38;98799.09;;;17.88;100.00
9905;BME280;4991;43.566;27.820;2023-07-09T01:55:07;98803.31;;;17.86;100.00
9905;BME280;4991;43.566;27.820;2023-07-09T01:57:33;98792.66;;;17.84;100.00
9905;BME280;4991;43.566;27.820;2023-07-09T02:00:02;98807.34;;;17.88;100.00
9905;BME280;4991;43.566;27.820;2023-07-09T02:02:29;98802.19;;;17.87;100.00
9905;BME280;4991;43.566;27.820;2023-07-09T02:04:56;98803.22;;;17.82;100.00
9905;BME280;4991;43.566;27.820;2023-07-09T02:07:23;98809.09;;;17.81;100.00
9905;BME280;4991;43.566;27.820;2023-07-09T02:09:50;98808.41;;;17.84;100.00
9905;BME280;4991;43.566;27.820;2023-07-09T02:12:16;98812.28;;;17.83;100.00
9905;BME280;4991;43.566;27.820;2023-07-09T02:14:43;98815.06;;;17.83;100.00
9905;BME280;4991;43.566;27.820;2023-07-09T02:17:11;98816.69;;;17.84;100.00
9905;BME280;4991;43.566;27.820;2023-07-09T02:19:37;98820.66;;;17.86;100.00
9905;BME280;4991;43.566;27.820;2023-07-09T02:22:05;98831.78;;;17.90;100.00
9905;BME280;4991;43.566;27.820;2023-07-09T02:24:32;98827.34;;;17.85;100.00
9905;BME280;4991;43.566;27.820;2023-07-09T02:26:59;98834.44;;;17.86;100.00
9905;BME280;4991;43.566;27.820;2023-07-09T02:29:27;98846.16;;;17.83;100.00
9905;BME280;4991;43.566;27.820;2023-07-09T02:31:54;98837.69;;;17.76;100.00
9905;BME280;4991;43.566;27.820;2023-07-09T02:34:20;98841.78;;;17.82;100.00
9905;BME280;4991;43.566;27.820;2023-07-09T02:36:54;98844.53;;;17.82;100.00
9905;BME280;4991;43.566;27.820;2023-07-09T02:39:20;98834.78;;;17.85;100.00
9905;BME280;4991;43.566;27.820;2023-07-09T02:41:46;98845.56;;;17.90;100.00
9905;BME280;4991;43.566;27.820;2023-07-09T02:44:12;98847.16;;;17.91;100.00
9905;BME280;4991;43.566;27.820;2023-07-09T02:46:38;98845.22;;;17.91;100.00
9905;BME280;4991;43.566;27.820;2023-07-09T02:49:04;98845.56;;;17.90;100.00
9905;BME280;4991;43.566;27.820;2023-07-09T02:51:30;98848.31;;;17.90;100.00
9905;BME280;4991;43.566;27.820;2023-07-09T02:53:58;98850.25;;;17.89;100.00
9905;BME280;4991;43.566;27.820;2023-07-09T02:56:23;98848.22;;;17.86;100.00
9905;BME280;4991;43.566;27.820;2023-07-09T02:58:50;98846.72;;;17.89;100.00
9905;BME280;4991;43.566;27.820;2023-07-09T03:01:16;98849.56;;;17.92;100.00
9905;BME280;4991;43.566;27.820;2023-07-09T03:03:42;98858.75;;;17.96;100.00
9905;BME280;4991;43.566;27.820;2023-07-09T03:06:09;98856.00;;;17.96;100.00
9905;BME280;4991;43.566;27.820;2023-07-09T03:08:35;98855.19;;;17.96;100.00
9905;BME280;4991;43.566;27.820;2023-07-09T03:11:12;98865.06;;;17.97;100.00
9905;BME280;4991;43.566;27.820;2023-07-09T03:13:38;98857.78;;;18.04;100.00
9905;BME280;4991;43.566;27.820;2023-07-09T03:16:04;98853.09;;;18.05;100.00
9905;BME280;4991;43.566;27.820;2023-07-09T03:18:30;98854.44;;;18.11;100.00
9905;BME280;4991;43.566;27.820;2023-07-09T03:20:55;98857.75;;;18.17;100.00
9905;BME280;4991;43.566;27.820;2023-07-09T03:23:21;98853.91;;;18.21;100.00
9905;BME280;4991;43.566;27.820;2023-07-09T03:25:47;98845.75;;;18.25;100.00
9905;BME280;4991;43.566;27.820;2023-07-09T03:28:13;98848.81;;;18.35;100.00
9905;BME280;4991;43.566;27.820;2023-07-09T03:30:44;98849.59;;;18.36;100.00
9905;BME280;4991;43.566;27.820;2023-07-09T03:33:10;98860.94;;;18.46;100.00
9905;BME280;4991;43.566;27.820;2023-07-09T03:35:36;98857.00;;;18.47;100.00
9905;BME280;4991;43.566;27.820;2023-07-09T03:38:05;98866.75;;;18.57;100.00
9905;BME280;4991;43.566;27.820;2023-07-09T03:40:31;98855.09;;;18.63;100.00
9905;BME280;4991;43.566;27.820;2023-07-09T03:42:56;98853.31;;;18.71;100.00
9905;BME280;4991;43.566;27.820;2023-07-09T03:45:23;98856.25;;;18.78;100.00
9905;BME280;4991;43.566;27.820;2023-07-09T03:47:48;98869.41;;;18.84;100.00
9905;BME280;4991;43.566;27.820;2023-07-09T03:50:14;98859.72;;;18.90;100.00
9905;BME280;4991;43.566;27.820;2023-07-09T03:52:40;98851.69;;;19.01;100.00
9905;BME280;4991;43.566;27.820;2023-07-09T03:55:06;98857.75;;;19.06;100.00
9905;BME280;4991;43.566;27.820;2023-07-09T03:57:32;98859.06;;;19.12;100.00
9905;BME280;4991;43.566;27.820;2023-07-09T03:59:58;98858.81;;;19.17;100.00
9905;BME280;4991;43.566;27.820;2023-07-09T04:02:24;98852.91;;;19.19;100.00
9905;BME280;4991;43.566;27.820;2023-07-09T04:04:50;98854.25;;;19.25;100.00
9905;BME280;4991;43.566;27.820;2023-07-09T04:07:16;98859.84;;;19.28;100.00
9905;BME280;4991;43.566;27.820;2023-07-09T04:09:41;98861.31;;;19.38;100.00
9905;BME280;4991;43.566;27.820;2023-07-09T04:12:08;98856.28;;;19.44;100.00
9905;BME280;4991;43.566;27.820;2023-07-09T04:14:34;98864.56;;;19.44;100.00
9905;BME280;4991;43.566;27.820;2023-07-09T04:17:00;98860.94;;;19.40;100.00
9905;BME280;4991;43.566;27.820;2023-07-09T04:19:26;98865.66;;;19.39;100.00
9905;BME280;4991;43.566;27.820;2023-07-09T04:21:51;98854.69;;;19.27;100.00
9905;BME280;4991;43.566;27.820;2023-07-09T04:24:18;98860.47;;;19.22;100.00
9905;BME280;4991;43.566;27.820;2023-07-09T04:26:44;98863.88;;;19.15;100.00
9905;BME280;4991;43.566;27.820;2023-07-09T04:29:10;98867.44;;;19.16;100.00
9905;BME280;4991;43.566;27.820;2023-07-09T04:31:35;98859.69;;;19.21;100.00
9905;BME280;4991;43.566;27.820;2023-07-09T04:34:01;98860.94;;;19.24;100.00
9905;BME280;4991;43.566;27.820;2023-07-09T04:36:27;98856.06;;;19.33;100.00
9905;BME280;4991;43.566;27.820;2023-07-09T04:38:52;98857.00;;;19.41;100.00
9905;BME280;4991;43.566;27.820;2023-07-09T04:41:18;98867.56;;;19.54;100.00
9905;BME280;4991;43.566;27.820;2023-07-09T04:43:44;98851.91;;;19.58;100.00
9905;BME280;4991;43.566;27.820;2023-07-09T04:46:09;98854.00;;;19.65;100.00
9905;BME280;4991;43.566;27.820;2023-07-09T04:48:35;98860.41;;;19.69;100.00
9905;BME280;4991;43.566;27.820;2023-07-09T04:51:01;98857.72;;;19.72;100.00
9905;BME280;4991;43.566;27.820;2023-07-09T04:53:27;98864.22;;;19.80;100.00
9905;BME280;4991;43.566;27.820;2023-07-09T04:55:52;98861.13;;;19.85;100.00
9905;BME280;4991;43.566;27.820;2023-07-09T04:58:18;98863.56;;;19.86;100.00
9905;BME280;4991;43.566;27.820;2023-07-09T05:00:45;98855.25;;;19.86;100.00
9905;BME280;4991;43.566;27.820;2023-07-09T05:03:11;98848.19;;;19.89;100.00
9905;BME280;4991;43.566;27.820;2023-07-09T05:05:46;98860.44;;;19.88;100.00
9905;BME280;4991;43.566;27.820;2023-07-09T05:08:13;98861.19;;;19.88;100.00
9905;BME280;4991;43.566;27.820;2023-07-09T05:10:46;98858.06;;;19.90;100.00
9905;BME280;4991;43.566;27.820;2023-07-09T05:13:12;98861.13;;;19.85;100.00
9905;BME280;4991;43.566;27.820;2023-07-09T05:15:44;98862.22;;;19.80;100.00
9905;BME280;4991;43.566;27.820;2023-07-09T05:18:10;98858.59;;;19.76;100.00
9905;BME280;4991;43.566;27.820;2023-07-09T05:20:36;98848.91;;;19.67;100.00
9905;BME280;4991;43.566;27.820;2023-07-09T05:23:02;98848.97;;;19.70;100.00
9905;BME280;4991;43.566;27.820;2023-07-09T05:25:28;98858.72;;;19.64;100.00
9905;BME280;4991;43.566;27.820;2023-07-09T05:27:54;98863.53;;;19.67;100.00
9905;BME280;4991;43.566;27.820;2023-07-09T05:30:20;98870.31;;;19.70;100.00
9905;BME280;4991;43.566;27.820;2023-07-09T05:32:46;98859.00;;;19.78;100.00
9905;BME280;4991;43.566;27.820;2023-07-09T05:35:12;98866.59;;;19.81;100.00
9905;BME280;4991;43.566;27.820;2023-07-09T05:37:37;98860.78;;;19.86;100.00
9905;BME280;4991;43.566;27.820;2023-07-09T05:40:04;98864.34;;;19.87;100.00
9905;BME280;4991;43.566;27.820;2023-07-09T05:42:31;98862.47;;;19.91;100.00
9905;BME280;4991;43.566;27.820;2023-07-09T05:44:57;98861.72;;;19.94;100.00
9905;BME280;4991;43.566;27.820;2023-07-09T05:47:23;98861.50;;;20.02;100.00
9905;BME280;4991;43.566;27.820;2023-07-09T05:49:49;98862.38;;;20.06;100.00
9905;BME280;4991;43.566;27.820;2023-07-09T05:52:17;98858.44;;;20.07;100.00
9905;BME280;4991;43.566;27.820;2023-07-09T05:54:42;98877.53;;;20.12;100.00
9905;BME280;4991;43.566;27.820;2023-07-09T05:57:10;98878.47;;;20.20;100.00
9905;BME280;4991;43.566;27.820;2023-07-09T05:59:35;98873.16;;;20.30;100.00
9905;BME280;4991;43.566;27.820;2023-07-09T06:02:01;98870.91;;;20.36;100.00
9905;BME280;4991;43.566;27.820;2023-07-09T06:04:28;98868.69;;;20.45;100.00
9905;BME280;4991;43.566;27.820;2023-07-09T06:06:56;98874.31;;;20.48;100.00
9905;BME280;4991;43.566;27.820;2023-07-09T06:09:23;98866.50;;;20.54;100.00
9905;BME280;4991;43.566;27.820;2023-07-09T06:11:48;98881.50;;;20.53;100.00
9905;BME280;4991;43.566;27.820;2023-07-09T06:14:14;98872.72;;;20.47;100.00
9905;BME280;4991;43.566;27.820;2023-07-09T06:16:42;98887.75;;;20.50;100.00
9905;BME280;4991;43.566;27.820;2023-07-09T06:19:09;98887.41;;;20.51;100.00
9905;BME280;4991;43.566;27.820;2023-07-09T06:21:35;98895.75;;;20.55;100.00
9905;BME280;4991;43.566;27.820;2023-07-09T06:24:00;98899.59;;;20.70;100.00
9905;BME280;4991;43.566;27.820;2023-07-09T06:26:26;98875.50;;;20.70;100.00
9905;BME280;4991;43.566;27.820;2023-07-09T06:28:52;98886.31;;;20.79;100.00
9905;BME280;4991;43.566;27.820;2023-07-09T06:31:17;98889.03;;;20.75;100.00
9905;BME280;4991;43.566;27.820;2023-07-09T06:33:47;98886.75;;;20.81;100.00
9905;BME280;4991;43.566;27.820;2023-07-09T06:36:13;98881.38;;;20.91;100.00
9905;BME280;4991;43.566;27.820;2023-07-09T06:38:38;98895.22;;;20.91;100.00
9905;BME280;4991;43.566;27.820;2023-07-09T06:41:04;98883.84;;;20.96;100.00
9905;BME280;4991;43.566;27.820;2023-07-09T06:43:30;98891.94;;;21.05;100.00
9905;BME280;4991;43.566;27.820;2023-07-09T06:45:58;98896.19;;;20.99;100.00
9905;BME280;4991;43.566;27.820;2023-07-09T06:48:26;98893.59;;;21.09;100.00
9905;BME280;4991;43.566;27.820;2023-07-09T06:50:56;98883.44;;;21.17;100.00
9905;BME280;4991;43.566;27.820;2023-07-09T06:53:22;98911.50;;;21.15;100.00
9905;BME280;4991;43.566;27.820;2023-07-09T06:55:48;98900.13;;;21.20;100.00
9905;BME280;4991;43.566;27.820;2023-07-09T06:58:15;98891.13;;;21.27;100.00
9905;BME280;4991;43.566;27.820;2023-07-09T07:00:41;98876.66;;;21.37;100.00
9905;BME280;4991;43.566;27.820;2023-07-09T07:03:07;98877.41;;;21.37;100.00
9905;BME280;4991;43.566;27.820;2023-07-09T07:05:34;98874.19;;;21.32;100.00
9905;BME280;4991;43.566;27.820;2023-07-09T07:08:00;98894.31;;;21.29;100.00
9905;BME280;4991;43.566;27.820;2023-07-09T07:10:26;98895.22;;;21.36;100.00
9905;BME280;4991;43.566;27.820;2023-07-09T07:12:52;98895.78;;;21.45;100.00
9905;BME280;4991;43.566;27.820;2023-07-09T07:15:18;98880.41;;;21.51;100.00
9905;BME280;4991;43.566;27.820;2023-07-09T07:17:44;98891.56;;;21.55;100.00
9905;BME280;4991;43.566;27.820;2023-07-09T07:20:12;98882.38;;;21.51;100.00
9905;BME280;4991;43.566;27.820;2023-07-09T07:22:38;98905.16;;;21.63;100.00
9905;BME280;4991;43.566;27.820;2023-07-09T07:25:05;98910.31;;;21.65;100.00
9905;BME280;4991;43.566;27.820;2023-07-09T07:27:32;98881.91;;;21.71;100.00
9905;BME280;4991;43.566;27.820;2023-07-09T07:29:58;98880.03;;;21.79;100.00
9905;BME280;4991;43.566;27.820;2023-07-09T07:32:23;98891.72;;;21.92;100.00
9905;BME280;4991;43.566;27.820;2023-07-09T07:34:49;98884.84;;;22.12;100.00
9905;BME280;4991;43.566;27.820;2023-07-09T07:37:18;98893.94;;;22.12;100.00
9905;BME280;4991;43.566;27.820;2023-07-09T07:39:47;98885.88;;;22.00;100.00
9905;BME280;4991;43.566;27.820;2023-07-09T07:42:13;98900.59;;;22.04;100.00
9905;BME280;4991;43.566;27.820;2023-07-09T07:44:39;98892.31;;;22.08;100.00
9905;BME280;4991;43.566;27.820;2023-07-09T07:47:05;98878.91;;;22.13;100.00
9905;BME280;4991;43.566;27.820;2023-07-09T07:49:31;98886.00;;;22.11;100.00
9905;BME280;4991;43.566;27.820;2023-07-09T07:51:57;98892.16;;;22.27;100.00
9905;BME280;4991;43.566;27.820;2023-07-09T07:54:22;98886.75;;;22.41;100.00
9905;BME280;4991;43.566;27.820;2023-07-09T07:56:48;98895.22;;;22.51;100.00
9905;BME280;4991;43.566;27.820;2023-07-09T07:59:14;98885.66;;;22.49;100.00
9905;BME280;4991;43.566;27.820;2023-07-09T08:01:40;98886.84;;;22.48;100.00
9905;BME280;4991;43.566;27.820;2023-07-09T08:04:06;98900.16;;;22.65;100.00
9905;BME280;4991;43.566;27.820;2023-07-09T08:06:31;98900.59;;;22.70;100.00
9905;BME280;4991;43.566;27.820;2023-07-09T08:08:58;98892.25;;;22.70;100.00
9905;BME280;4991;43.566;27.820;2023-07-09T08:11:24;98906.38;;;22.95;100.00
9905;BME280;4991;43.566;27.820;2023-07-09T08:13:50;98912.41;;;23.00;100.00
9905;BME280;4991;43.566;27.820;2023-07-09T08:16:16;98886.59;;;23.00;100.00
9905;BME280;4991;43.566;27.820;2023-07-09T08:18:42;98893.09;;;23.18;100.00
9905;BME280;4991;43.566;27.820;2023-07-09T08:21:08;98883.97;;;23.18;100.00
9905;BME280;4991;43.566;27.820;2023-07-09T08:23:35;98894.72;;;23.19;100.00
9905;BME280;4991;43.566;27.820;2023-07-09T08:26:02;98886.38;;;23.19;100.00
9905;BME280;4991;43.566;27.820;2023-07-09T08:28:29;98913.50;;;23.33;100.00
9905;BME280;4991;43.566;27.820;2023-07-09T08:30:55;98896.38;;;23.27;100.00
9905;BME280;4991;43.566;27.820;2023-07-09T08:33:22;98894.06;;;23.33;100.00
9905;BME280;4991;43.566;27.820;2023-07-09T08:35:52;98897.25;;;23.38;100.00
9905;BME280;4991;43.566;27.820;2023-07-09T08:38:18;98894.13;;;23.43;100.00
9905;BME280;4991;43.566;27.820;2023-07-09T08:40:54;98890.63;;;23.53;100.00
9905;BME280;4991;43.566;27.820;2023-07-09T08:48:54;98884.84;;;23.79;100.00
9905;BME280;4991;43.566;27.820;2023-07-09T08:51:25;98885.72;;;23.94;100.00
9905;BME280;4991;43.566;27.820;2023-07-09T08:54:00;98909.09;;;23.82;100.00
9905;BME280;4991;43.566;27.820;2023-07-09T08:56:27;98895.97;;;23.83;100.00
9905;BME280;4991;43.566;27.820;2023-07-09T08:58:55;98895.56;;;23.81;100.00
9905;BME280;4991;43.566;27.820;2023-07-09T09:01:25;98880.47;;;23.82;100.00
9905;BME280;4991;43.566;27.820;2023-07-09T09:03:57;98902.47;;;24.04;100.00
9905;BME280;4991;43.566;27.820;2023-07-09T09:06:29;98910.06;;;24.07;100.00
9905;BME280;4991;43.566;27.820;2023-07-09T09:11:44;98896.16;;;24.18;100.00
9905;BME280;4991;43.566;27.820;2023-07-09T09:16:56;98931.22;;;24.30;100.00
9905;BME280;4991;43.566;27.820;2023-07-09T09:19:27;98897.88;;;24.44;100.00
9905;BME280;4991;43.566;27.820;2023-07-09T09:22:02;98888.72;;;24.47;100.00
9905;BME280;4991;43.566;27.820;2023-07-09T09:24:36;98898.25;;;24.39;100.00
9905;BME280;4991;43.566;27.820;2023-07-09T09:27:02;98901.06;;;24.46;100.00
9905;BME280;4991;43.566;27.820;2023-07-09T09:29:28;98895.91;;;24.58;100.00
9905;BME280;4991;43.566;27.820;2023-07-09T09:31:58;98900.78;;;24.79;100.00
9905;BME280;4991;43.566;27.820;2023-07-09T09:34:29;98902.38;;;24.97;100.00
9905;BME280;4991;43.566;27.820;2023-07-09T09:36:57;98893.63;;;24.92;100.00
9905;BME280;4991;43.566;27.820;2023-07-09T09:39:24;98890.84;;;24.88;100.00
9905;BME280;4991;43.566;27.820;2023-07-09T09:41:53;98917.16;;;25.12;100.00
9905;BME280;4991;43.566;27.820;2023-07-09T09:44:25;98895.22;;;25.14;100.00
9905;BME280;4991;43.566;27.820;2023-07-09T09:46:51;98914.75;;;25.24;100.00
9905;BME280;4991;43.566;27.820;2023-07-09T09:49:17;98892.03;;;25.15;100.00
9905;BME280;4991;43.566;27.820;2023-07-09T09:51:46;98890.88;;;25.55;100.00
9905;BME280;4991;43.566;27.820;2023-07-09T09:54:24;98907.19;;;26.82;100.00
9905;BME280;4991;43.566;27.820;2023-07-09T09:56:52;98905.28;;;27.74;100.00
9905;BME280;4991;43.566;27.820;2023-07-09T09:59:27;98917.97;;;28.19;100.00
9905;BME280;4991;43.566;27.820;2023-07-09T10:02:10;98911.50;;;28.26;100.00
9905;BME280;4991;43.566;27.820;2023-07-09T10:04:39;98916.63;;;28.31;100.00
9905;BME280;4991;43.566;27.820;2023-07-09T10:07:07;98912.91;;;29.01;100.00
9905;BME280;4991;43.566;27.820;2023-07-09T10:20:51;98912.66;;;28.32;100.00
9905;BME280;4991;43.566;27.820;2023-07-09T10:26:51;98923.72;;;28.72;100.00
9905;BME280;4991;43.566;27.820;2023-07-09T10:29:42;98917.75;;;28.70;100.00
9905;BME280;4991;43.566;27.820;2023-07-09T10:34:51;98929.47;;;29.19;100.00
9905;BME280;4991;43.566;27.820;2023-07-09T10:40:10;98910.63;;;29.46;100.00
9905;BME280;4991;43.566;27.820;2023-07-09T10:42:59;98913.44;;;29.69;100.00
9905;BME280;4991;43.566;27.820;2023-07-09T10:45:53;98913.63;;;29.81;100.00
9905;BME280;4991;43.566;27.820;2023-07-09T10:48:40;98920.72;;;30.09;100.00
9905;BME280;4991;43.566;27.820;2023-07-09T10:51:41;98919.50;;;29.41;100.00
9905;BME280;4991;43.566;27.820;2023-07-09T10:54:32;98901.72;;;29.74;100.00
9905;BME280;4991;43.566;27.820;2023-07-09T10:57:11;98914.69;;;30.30;100.00
9905;BME280;4991;43.566;27.820;2023-07-09T10:59:40;98930.94;;;29.53;100.00
9905;BME280;4991;43.566;27.820;2023-07-09T11:02:18;98904.69;;;29.40;100.00
9905;BME280;4991;43.566;27.820;2023-07-09T11:04:55;98912.78;;;30.04;100.00
9905;BME280;4991;43.566;27.820;2023-07-09T11:10:35;98903.31;;;30.73;98.69
9905;BME280;4991;43.566;27.820;2023-07-09T11:13:14;98899.53;;;30.63;100.00
9905;BME280;4991;43.566;27.820;2023-07-09T11:15:42;98895.09;;;31.49;100.00
9905;BME280;4991;43.566;27.820;2023-07-09T11:18:25;98897.19;;;31.29;95.42
9905;BME280;4991;43.566;27.820;2023-07-09T11:23:44;98911.44;;;30.31;97.55
9905;BME280;4991;43.566;27.820;2023-07-09T11:31:39;98902.63;;;30.10;97.15
9905;BME280;4991;43.566;27.820;2023-07-09T11:34:14;98902.06;;;29.99;99.66
9905;BME280;4991;43.566;27.820;2023-07-09T11:41:52;98908.25;;;31.04;97.90
9905;BME280;4991;43.566;27.820;2023-07-09T11:44:20;98911.69;;;31.12;96.51
9905;BME280;4991;43.566;27.820;2023-07-09T11:46:55;98911.25;;;31.13;96.75
9905;BME280;4991;43.566;27.820;2023-07-09T11:49:25;98910.78;;;31.50;94.56
9905;BME280;4991;43.566;27.820;2023-07-09T11:52:00;98901.59;;;31.63;95.55
9905;BME280;4991;43.566;27.820;2023-07-09T11:54:27;98922.69;;;32.03;92.79
9905;BME280;4991;43.566;27.820;2023-07-09T11:56:57;98898.88;;;32.20;92.02
9905;BME280;4991;43.566;27.820;2023-07-09T11:59:22;98903.81;;;32.44;88.78
9905;BME280;4991;43.566;27.820;2023-07-09T12:01:49;98906.78;;;31.64;89.55
9905;BME280;4991;43.566;27.820;2023-07-09T12:04:20;98908.16;;;32.04;90.73
9905;BME280;4991;43.566;27.820;2023-07-09T12:06:46;98890.03;;;30.57;93.14
9905;BME280;4991;43.566;27.820;2023-07-09T12:09:18;98897.41;;;30.87;93.14
9905;BME280;4991;43.566;27.820;2023-07-09T12:11:45;98877.69;;;31.38;91.01
9905;BME280;4991;43.566;27.820;2023-07-09T12:14:14;98891.56;;;31.29;89.99
9905;BME280;4991;43.566;27.820;2023-07-09T12:16:43;98888.03;;;31.90;87.98
9905;BME280;4991;43.566;27.820;2023-07-09T12:19:12;98904.72;;;32.41;87.01
9905;BME280;4991;43.566;27.820;2023-07-09T12:21:40;98910.38;;;32.54;87.42
9905;BME280;4991;43.566;27.820;2023-07-09T12:27:00;98883.31;;;32.69;85.63
9905;BME280;4991;43.566;27.820;2023-07-09T12:29:33;98894.38;;;31.94;85.11
9905;BME280;4991;43.566;27.820;2023-07-09T12:32:03;98886.09;;;32.15;84.82
9905;BME280;4991;43.566;27.820;2023-07-09T12:34:32;98905.31;;;32.04;81.69
9905;BME280;4991;43.566;27.820;2023-07-09T12:36:58;98883.22;;;31.58;83.19
9905;BME280;4991;43.566;27.820;2023-07-09T12:39:29;98898.63;;;32.43;83.66
9905;BME280;4991;43.566;27.820;2023-07-09T12:41:56;98886.38;;;31.60;81.55
9905;BME280;4991;43.566;27.820;2023-07-09T12:44:25;98891.34;;;32.01;82.96
9905;BME280;4991;43.566;27.820;2023-07-09T12:46:53;98887.34;;;32.14;81.35
9905;BME280;4991;43.566;27.820;2023-07-09T12:49:26;98901.44;;;32.55;78.48
9905;BME280;4991;43.566;27.820;2023-07-09T12:51:57;98884.00;;;32.73;79.18
9905;BME280;4991;43.566;27.820;2023-07-09T12:54:23;98868.44;;;32.81;79.03
9905;BME280;4991;43.566;27.820;2023-07-09T12:56:53;98883.53;;;33.62;77.83
9905;BME280;4991;43.566;27.820;2023-07-09T12:59:23;98889.91;;;33.04;78.11
9905;BME280;4991;43.566;27.820;2023-07-09T13:02:00;98883.91;;;33.14;76.44
9905;BME280;4991;43.566;27.820;2023-07-09T13:04:36;98868.53;;;32.78;75.89
9905;BME280;4991;43.566;27.820;2023-07-09T13:07:02;98882.78;;;33.12;75.57
9905;BME280;4991;43.566;27.820;2023-07-09T13:09:28;98870.94;;;32.92;76.54
9905;BME280;4991;43.566;27.820;2023-07-09T13:11:55;98869.94;;;32.98;76.53
9905;BME280;4991;43.566;27.820;2023-07-09T13:14:29;98867.63;;;33.18;74.37
9905;BME280;4991;43.566;27.820;2023-07-09T13:17:05;98862.66;;;32.59;73.89
9905;BME280;4991;43.566;27.820;2023-07-09T13:19:32;98879.25;;;32.29;75.56
9905;BME280;4991;43.566;27.820;2023-07-09T13:21:58;98884.97;;;32.41;76.06
9905;BME280;4991;43.566;27.820;2023-07-09T13:24:25;98864.78;;;31.86;77.05
9905;BME280;4991;43.566;27.820;2023-07-09T13:26:53;98879.47;;;32.63;76.56
9905;BME280;4991;43.566;27.820;2023-07-09T13:29:19;98873.38;;;32.77;75.99
9905;BME280;4991;43.566;27.820;2023-07-09T13:31:46;98860.03;;;33.40;75.11
9905;BME280;4991;43.566;27.820;2023-07-09T13:34:23;98872.72;;;33.23;75.29
9905;BME280;4991;43.566;27.820;2023-07-09T13:36:51;98867.97;;;33.58;75.55
9905;BME280;4991;43.566;27.820;2023-07-09T13:39:19;98865.13;;;33.92;72.17
9905;BME280;4991;43.566;27.820;2023-07-09T13:41:47;98869.09;;;34.16;71.94
9905;BME280;4991;43.566;27.820;2023-07-09T13:44:19;98865.50;;;33.47;72.76
9905;BME280;4991;43.566;27.820;2023-07-09T13:46:45;98870.56;;;33.27;74.63
9905;BME280;4991;43.566;27.820;2023-07-09T13:49:13;98862.88;;;33.40;73.67
9905;BME280;4991;43.566;27.820;2023-07-09T13:51:41;98846.78;;;33.16;71.73
9905;BME280;4991;43.566;27.820;2023-07-09T13:56:44;98853.13;;;32.28;74.60
9905;BME280;4991;43.566;27.820;2023-07-09T13:59:19;98857.69;;;32.63;75.21
9905;BME280;4991;43.566;27.820;2023-07-09T14:01:45;98858.69;;;32.03;76.39